Last 7 Days

Williams 2 (WL2)

Hourly Data | America/Los_Angeles
as of 12/12/19 3:11 AM PST
Date & Time Temp (°F) RH (%) Dew Pt (°F) Wind Spd (mph) Wind Dir (°) Wind Gust (mph) Latest Rain (In) Daily Rain (In) Daily Min Temp (°F) Daily Max Temp (°F)
12/12/19 - 0300 39.3 98 38.7 0.4 S | 185 0.4 0.02 0.04 38.9 41.2
12/12/19 - 0200 40.2 97 39.5 0.4 S | 188 0.4 0.01 0.02 39.9 41.2
12/12/19 - 0100 41.0 97 40.3 0.4 WSW | 256 0.4 0.01 0.01 40.6 41.2
12/12/19 - 0000 41.5 97 40.8 0.4 NW | 318 0.4 0.01 0.20 41.2 46.9
12/11/19 - 2300 42.0 97 41.2 0.4 W | 269 0.4 0.01 0.19 41.8 46.9
12/11/19 - 2200 42.4 97 41.7 0.4 N | 359 2.1 0.04 0.18 42.2 46.9
12/11/19 - 2100 43.6 97 42.8 0.4 ESE | 115 0.4 0.01 0.14 42.8 46.9
12/11/19 - 2000 44.5 97 43.6 0.8 N | 3 4.1 0.00 0.13 44.3 46.9
12/11/19 - 1900 44.8 97 43.9 0.8 S | 179 3.4 0.00 0.13 44.6 46.9
12/11/19 - 1800 45.1 97 44.2 1.4 SSW | 196 5.1 0.01 0.13 44.8 46.9
12/11/19 - 1700 45.5 96 44.5 2.2 SSW | 196 6.1 0.00 0.12 45.1 46.9
12/11/19 - 1600 46.2 96 45.1 1.9 SSW | 196 5.8 0.00 0.12 45.1 46.9
12/11/19 - 1500 46.7 96 45.4 0.4 SSW | 205 0.4 0.00 0.12 45.1 46.9
12/11/19 - 1400 46.6 96 45.4 0.5 SSW | 195 3.1 0.00 0.12 45.1 46.8
12/11/19 - 1300 46.6 95 45.2 1.0 S | 185 5.1 0.11 0.12 45.1 46.8
12/11/19 - 1200 46.1 96 45.0 0.5 SSW | 196 3.4 0.00 0.01 45.1 46.6
12/11/19 - 1100 45.4 97 44.6 0.5 SW | 221 2.7 0.00 0.01 45.1 45.9
12/11/19 - 1000 45.3 97 44.5 1.2 SSW | 211 5.1 0.00 0.01 45.1 45.9
12/11/19 - 0900 45.3 97 44.4 0.5 SSW | 212 3.1 0.00 0.01 45.1 45.9
12/11/19 - 0800 45.2 96 44.1 0.4 SSW | 194 2.1 0.01 0.01 45.1 45.9
12/11/19 - 0700 45.5 96 44.2 0.4 SW | 221 0.4 0.00 0.00 45.1 45.9
12/11/19 - 0600 45.4 96 44.3 2.5 N | 0 5.8 0.00 0.00 45.1 45.9
12/11/19 - 0500 45.2 96 44.3 3.4 NNW | 344 6.8 0.00 0.00 45.1 45.9
12/11/19 - 0400 45.2 97 44.4 2.3 NNW | 342 5.8 0.00 0.00 45.1 45.9
12/11/19 - 0300 45.4 97 44.5 0.5 NNW | 342 2.7 0.00 0.00 45.3 45.9
12/11/19 - 0200 45.6 96 44.7 0.4 WSW | 240 0.4 0.00 0.00 45.4 45.9
12/11/19 - 0100 45.8 96 44.8 0.4 SSW | 192 2.4 0.00 0.00 45.6 45.9
12/11/19 - 0000 46.0 96 45.0 0.6 S | 179 3.4 0.01 0.17 41.0 50.4
12/10/19 - 2300 46.5 96 45.4 0.9 SSE | 150 5.4 0.01 0.16 41.0 50.4
12/10/19 - 2200 46.5 96 45.4 0.4 S | 171 2.1 0.00 0.15 41.0 50.4
12/10/19 - 2100 46.7 95 45.4 0.4 SW | 229 2.1 0.05 0.15 41.0 50.4
12/10/19 - 2000 47.0 94 45.4 1.0 N | 349 5.1 0.06 0.10 41.0 50.4
12/10/19 - 1900 48.6 89 45.6 0.5 N | 356 4.1 0.04 0.04 41.0 50.4
12/10/19 - 1800 49.1 86 45.2 0.4 W | 265 0.4 0.00 0.00 41.0 50.4
12/10/19 - 1700 49.7 84 45.0 1.2 SE | 144 5.4 0.00 0.00 41.0 50.4
12/10/19 - 1600 50.1 83 45.2 1.0 SE | 127 5.4 0.00 0.00 41.0 50.4
12/10/19 - 1500 50.2 83 45.1 1.3 SE | 141 5.8 0.00 0.00 41.0 50.4
12/10/19 - 1400 50.1 82 44.7 1.0 SE | 144 5.8 0.00 0.00 41.0 50.4
12/10/19 - 1300 49.5 81 44.0 0.6 W | 260 3.1 0.00 0.00 41.0 50.0
12/10/19 - 1200 48.7 83 43.8 1.0 ESE | 103 5.1 0.00 0.00 41.0 49.3
12/10/19 - 1100 47.8 86 43.9 1.9 SE | 144 9.5 0.00 0.00 41.0 48.5
12/10/19 - 1000 45.7 92 43.5 1.1 NW | 320 5.4 0.00 0.00 41.0 46.8
12/10/19 - 0900 44.3 94 42.7 2.1 N | 356 8.1 0.00 0.00 41.0 45.0
12/10/19 - 0800 43.2 95 42.0 1.9 NNW | 347 6.8 0.00 0.00 41.0 43.7
12/10/19 - 0700 42.8 95 41.5 2.1 N | 351 6.8 0.00 0.00 41.0 43.0
12/10/19 - 0600 42.2 96 41.0 2.9 N | 351 7.1 0.00 0.00 41.0 42.9
12/10/19 - 0500 42.3 95 41.0 0.7 N | 5 4.1 0.00 0.00 41.0 42.9
12/10/19 - 0400 42.6 95 41.3 4.0 NNW | 348 9.5 0.00 0.00 41.0 42.9
12/10/19 - 0300 42.2 95 41.0 3.6 NNW | 347 8.4 0.00 0.00 41.0 42.8
12/10/19 - 0200 41.7 96 40.5 4.9 NNW | 346 9.1 0.00 0.00 41.0 41.9
12/10/19 - 0100 41.4 96 40.2 2.8 NNW | 343 8.1 0.00 0.00 41.0 41.7
12/10/19 - 0000 41.3 96 40.2 1.3 N | 355 5.8 0.00 0.00 39.6 56.7
12/9/19 - 2300 41.4 95 40.2 0.4 N | 9 2.4 0.00 0.00 39.6 56.7
12/9/19 - 2200 42.0 94 40.5 0.4 N | 359 0.4 0.00 0.00 39.6 56.7
12/9/19 - 2100 44.5 93 42.6 0.5 N | 356 4.1 0.00 0.00 39.6 56.7
12/9/19 - 2000 46.1 92 43.9 1.1 NNW | 327 5.1 0.00 0.00 39.6 56.7
12/9/19 - 1900 46.1 93 44.2 2.8 NNW | 338 11.5 0.00 0.00 39.6 56.7
12/9/19 - 1800 47.1 91 44.5 0.7 NNW | 342 4.1 0.00 0.00 39.6 56.7
12/9/19 - 1700 50.3 85 46.0 3.5 NNW | 336 8.1 0.00 0.00 39.6 56.7
12/9/19 - 1600 54.9 79 48.5 3.3 ENE | 67 6.4 0.00 0.00 39.6 56.7
12/9/19 - 1500 56.2 76 48.8 4.2 ESE | 109 7.8 0.00 0.00 39.6 56.7
12/9/19 - 1400 55.7 77 48.6 5.4 SE | 127 10.1 0.00 0.00 39.6 56.4
12/9/19 - 1300 56.0 75 48.3 3.9 SSE | 152 8.4 0.00 0.00 39.6 56.4
12/9/19 - 1200 55.2 73 46.9 2.8 SSE | 165 6.4 0.00 0.00 39.6 56.1
12/9/19 - 1100 53.8 74 45.6 2.4 S | 186 5.8 0.00 0.00 39.6 54.9
12/9/19 - 1000 49.8 79 43.7 1.3 NW | 325 4.4 0.00 0.00 39.6 53.0
12/9/19 - 0900 44.7 88 41.3 4.2 N | 359 9.5 0.00 0.00 39.6 47.2
12/9/19 - 0800 42.0 92 39.8 2.1 N | 358 9.8 0.00 0.00 39.6 43.2
12/9/19 - 0700 41.4 94 39.8 0.7 N | 353 6.8 0.00 0.00 39.6 43.2
12/9/19 - 0600 40.6 93 38.8 0.4 N | 10 1.1 0.00 0.00 39.7 43.2
12/9/19 - 0500 42.4 92 40.3 0.7 NNW | 348 6.1 0.00 0.00 41.0 43.2
12/9/19 - 0400 42.5 93 40.7 0.7 N | 350 6.8 0.00 0.00 41.0 43.2
12/9/19 - 0300 42.4 94 40.7 1.3 N | 352 8.8 0.00 0.00 41.0 43.0
12/9/19 - 0200 42.0 96 40.8 1.8 NNW | 348 8.8 0.00 0.00 41.0 43.0
12/9/19 - 0100 41.7 96 40.6 0.5 NNW | 344 5.4 0.00 0.00 41.2 42.4
12/9/19 - 0000 42.2 95 41.0 1.0 N | 8 5.4 0.00 0.09 41.7 59.8
12/8/19 - 2300 43.5 95 42.1 1.1 NNW | 343 6.4 0.00 0.09 42.7 59.8
12/8/19 - 2200 44.5 94 42.9 2.4 N | 352 7.1 0.00 0.09 43.6 59.8
12/8/19 - 2100 45.4 95 43.9 3.9 NNW | 343 8.4 0.00 0.09 44.7 59.8
12/8/19 - 2000 46.1 94 44.6 2.2 N | 352 7.4 0.00 0.09 45.4 59.8
12/8/19 - 1900 47.5 94 45.7 4.2 NNW | 346 7.1 0.00 0.09 46.6 59.8
12/8/19 - 1800 49.3 91 46.9 2.8 NNW | 348 5.4 0.00 0.09 46.6 59.8
12/8/19 - 1700 52.9 86 48.7 2.2 NNW | 348 4.8 0.00 0.09 46.6 59.8
12/8/19 - 1600 57.8 72 48.8 3.4 NNW | 333 8.4 0.00 0.09 46.6 59.8
12/8/19 - 1500 55.7 80 49.7 1.4 NW | 304 5.4 0.00 0.09 46.6 59.8
12/8/19 - 1400 58.0 70 48.4 2.8 NW | 318 9.5 0.00 0.09 46.6 59.8
12/8/19 - 1300 55.8 74 47.6 1.5 NW | 310 6.8 0.00 0.09 46.6 57.8
12/8/19 - 1200 54.4 77 47.4 2.1 NW | 306 7.4 0.00 0.09 46.6 55.7
12/8/19 - 1100 52.9 83 48.0 2.0 S | 176 7.4 0.00 0.09 46.6 53.8
12/8/19 - 1000 49.8 94 48.2 0.7 SE | 127 4.4 0.00 0.09 46.6 51.9
12/8/19 - 0900 47.5 97 46.8 0.5 SSE | 156 3.8 0.00 0.09 46.6 51.3
12/8/19 - 0800 47.2 97 46.5 0.4 NW | 305 0.4 0.00 0.09 46.6 51.3
12/8/19 - 0700 47.2 97 46.4 0.4 E | 87 0.4 0.00 0.09 46.6 51.3
12/8/19 - 0600 47.7 96 46.7 0.4 NNE | 14 0.4 0.00 0.09 47.0 51.3
12/8/19 - 0500 47.8 96 46.6 0.4 ESE | 103 0.4 0.00 0.09 47.0 51.3
12/8/19 - 0400 49.1 95 47.7 0.7 ESE | 113 5.1 0.00 0.09 48.5 51.3
12/8/19 - 0300 49.8 94 48.1 0.7 SE | 127 5.1 0.02 0.09 48.8 51.3
12/8/19 - 0200 50.9 94 49.1 0.9 SSW | 203 5.1 0.05 0.07 50.5 51.3
12/8/19 - 0100 51.1 93 49.3 2.4 SW | 216 10.5 0.02 0.02 51.0 51.3
12/8/19 - 0000 51.6 94 49.9 1.9 SSW | 193 8.1 0.05 0.80 47.8 59.1
12/7/19 - 2300 52.3 92 50.0 2.9 SSW | 192 10.8 0.08 0.75 47.8 59.1
12/7/19 - 2200 53.2 90 50.4 5.5 SSW | 195 15.5 0.07 0.67 47.8 59.1
12/7/19 - 2100 53.2 90 50.4 5.5 S | 185 13.8 0.00 0.60 47.8 59.1
12/7/19 - 2000 53.5 89 50.3 4.3 S | 176 11.1 0.00 0.60 47.8 59.1
12/7/19 - 1900 53.3 86 49.2 3.1 SE | 145 8.8 0.00 0.60 47.8 59.1
12/7/19 - 1800 53.8 82 48.6 2.5 S | 182 10.1 0.00 0.60 47.8 59.1
12/7/19 - 1700 54.1 82 48.9 4.9 SW | 231 14.2 0.00 0.60 47.8 59.1
12/7/19 - 1600 54.8 84 50.2 8.2 SSW | 192 19.5 0.01 0.60 47.8 59.1
12/7/19 - 1500 53.7 91 51.3 3.7 S | 181 17.8 0.18 0.59 47.8 59.1
12/7/19 - 1400 55.5 85 51.2 8.0 S | 179 20.9 0.14 0.41 47.8 59.1
12/7/19 - 1300 56.7 80 50.6 8.4 S | 174 23.5 0.02 0.27 47.8 59.1
12/7/19 - 1200 58.2 73 49.5 10.7 SSE | 166 22.5 0.00 0.25 47.8 59.1
12/7/19 - 1100 56.0 77 49.0 8.4 SSE | 156 22.5 0.00 0.25 47.8 57.8
12/7/19 - 1000 53.7 83 48.7 7.4 SSE | 157 15.2 0.00 0.25 47.8 54.6
12/7/19 - 0900 50.5 92 48.3 2.4 SSE | 166 9.1 0.00 0.25 47.8 52.9
12/7/19 - 0800 48.6 95 47.2 1.6 SSE | 148 9.1 0.00 0.25 47.8 48.9
12/7/19 - 0700 48.5 95 47.2 0.9 SSE | 151 6.4 0.00 0.25 47.8 48.9
12/7/19 - 0600 48.2 96 47.3 1.1 ESE | 118 6.1 0.00 0.25 47.8 48.9
12/7/19 - 0500 48.1 97 47.2 0.4 E | 86 0.4 0.01 0.25 47.9 48.9
12/7/19 - 0400 48.2 97 47.3 0.4 ESE | 104 0.4 0.07 0.24 48.1 48.9
12/7/19 - 0300 48.4 96 47.3 0.4 S | 187 0.4 0.06 0.17 48.2 48.9
12/7/19 - 0200 48.7 95 47.4 0.8 SE | 128 7.8 0.06 0.11 48.5 48.9
12/7/19 - 0100 48.8 95 47.5 0.8 ESE | 121 5.4 0.05 0.05 48.7 48.9
12/7/19 - 0000 49.0 95 47.6 2.4 SE | 141 10.5 0.01 0.54 41.6 55.2
12/6/19 - 2300 49.2 95 47.8 1.4 SE | 128 6.1 0.12 0.53 41.6 55.2
12/6/19 - 2200 49.9 94 48.3 0.9 E | 94 6.4 0.19 0.41 41.6 55.2
12/6/19 - 2100 51.4 90 48.5 0.7 NE | 41 5.4 0.13 0.22 41.6 55.2
12/6/19 - 2000 52.6 85 48.2 0.9 ESE | 102 5.4 0.01 0.09 41.6 55.2
12/6/19 - 1900 51.7 88 48.4 0.9 SE | 134 6.1 0.03 0.08 41.6 55.2
12/6/19 - 1800 53.4 82 48.2 2.1 SSE | 156 10.5 0.05 0.05 41.6 55.2
12/6/19 - 1700 53.8 84 49.0 0.5 SSE | 165 6.8 0.00 0.00 41.6 55.2
12/6/19 - 1600 54.7 81 49.0 0.4 NNE | 28 0.4 0.00 0.00 41.6 55.2
12/6/19 - 1500 54.4 81 48.7 1.8 S | 179 7.1 0.00 0.00 41.6 55.2
12/6/19 - 1400 54.6 78 47.8 3.0 S | 172 9.8 0.00 0.00 41.6 55.2
12/6/19 - 1300 52.1 79 45.6 3.1 S | 184 7.1 0.00 0.00 41.6 54.3
12/6/19 - 1200 46.8 88 43.4 0.8 S | 185 5.8 0.00 0.00 41.6 49.2
12/6/19 - 1100 43.1 96 42.0 0.4 SSW | 213 2.4 0.00 0.00 41.6 48.1
12/6/19 - 1000 42.5 97 41.8 0.5 SW | 216 3.8 0.00 0.00 41.6 48.1
12/6/19 - 0900 42.6 97 41.9 0.4 SW | 228 0.4 0.00 0.00 41.6 48.1
12/6/19 - 0800 42.2 97 41.5 0.4 W | 281 0.4 0.00 0.00 41.6 48.1
12/6/19 - 0700 43.2 97 42.5 0.4 W | 264 0.4 0.00 0.00 41.6 48.1
12/6/19 - 0600 43.0 97 42.2 0.4 SW | 236 0.4 0.00 0.00 41.6 48.1
12/6/19 - 0500 42.5 97 41.6 0.4 NNE | 23 0.4 0.00 0.00 41.6 48.1
12/6/19 - 0400 43.9 96 43.0 0.4 NW | 321 0.4 0.00 0.00 43.2 48.1
12/6/19 - 0300 45.6 96 44.5 0.5 N | 352 3.4 0.00 0.00 45.1 48.1
12/6/19 - 0200 47.0 95 45.6 0.4 E | 87 0.4 0.00 0.00 46.1 48.1
12/6/19 - 0100 47.8 94 46.2 0.4 NNE | 26 0.4 0.00 0.00 47.6 48.1
12/6/19 - 0000 48.2 94 46.4 0.4 E | 86 0.4 0.00 0.00 36.8 51.7
12/5/19 - 2300 47.9 94 46.4 0.4 E | 86 0.4 0.00 0.00 36.8 51.7
12/5/19 - 2200 48.1 94 46.5 0.4 NW | 307 0.4 0.00 0.00 36.8 51.7
12/5/19 - 2100 48.2 94 46.5 0.4 NW | 307 0.4 0.00 0.00 36.8 51.7
12/5/19 - 2000 48.1 94 46.4 0.4 NNW | 347 0.4 0.00 0.00 36.8 51.7
12/5/19 - 1900 48.2 93 46.4 0.4 NNW | 343 0.4 0.00 0.00 36.8 51.7
12/5/19 - 1800 49.1 91 46.7 0.5 N | 354 2.7 0.00 0.00 36.8 51.7
12/5/19 - 1700 50.9 86 46.9 0.4 NW | 307 1.1 0.00 0.00 36.8 51.7
12/5/19 - 1600 51.5 82 46.2 0.6 SSW | 209 4.4 0.00 0.00 36.8 51.7
12/5/19 - 1500 50.6 82 45.5 1.6 SE | 135 5.4 0.00 0.00 36.8 51.4
12/5/19 - 1400 48.6 86 44.7 3.7 ESE | 120 9.1 0.00 0.00 36.8 50.2
12/5/19 - 1300 47.1 85 42.9 2.2 SE | 125 7.4 0.00 0.00 36.8 48.4
12/5/19 - 1200 42.0 88 38.8 0.8 SSE | 155 6.8 0.00 0.00 36.8 45.7
12/5/19 - 1100 37.9 94 36.2 0.5 ESE | 122 5.1 0.00 0.00 36.8 43.5
12/5/19 - 1000 37.5 97 36.7 0.4 WNW | 302 3.1 0.00 0.00 36.8 43.5
12/5/19 - 0900 37.1 97 36.4 0.4 NW | 322 0.4 0.00 0.00 36.8 43.5
12/5/19 - 0800 37.0 97 36.2 0.4 NNW | 339 0.4 0.00 0.00 36.8 43.5
12/5/19 - 0700 37.0 97 36.3 0.4 NNE | 16 0.4 0.00 0.00 36.9 43.5
12/5/19 - 0600 37.8 97 37.1 0.4 NW | 306 0.4 0.00 0.00 37.0 43.5
12/5/19 - 0500 40.4 97 39.7 0.4 NW | 326 0.4 0.00 0.00 39.8 43.5
12/5/19 - 0400 41.2 97 40.6 0.4 NNW | 334 0.4 0.00 0.00 41.0 43.5
Max 58.2 98 51.3 10.7 - 23.5 0.19 0.80 51.0 59.8
Avg 47.4 91 44.8 1.7 - 5.5 0.01 - - -
Min 37.0 70 36.2 0.4 - 0.4 0.00 0.00 36.8 41.2
Total - - - - - - 1.84 - - -
Tip: Bookmark this page for easy future reference